Latest Weather Observations for Tunnack

IDT60801

Issued at 10:01 am EDT Tuesday 9 February 2016 (issued every 30 minutes, with the page automatically refreshed every 10 minutes)

About weather observations | Map of weather stations | Latest weather observations for TAS | Other Formats
Station Details ID: 094195 Name: TUNNACK FIRE STATION Lat: -42.45 Lon: 147.46 Height: 461.5 m
Data from the previous 72 hours. | See also: Recent months at Tunnack
Date/Time
EDT
Temp
°C
App
Temp
°C
Dew
Point
Rel
Hum
%
Delta-T
°C
Wind Press
QNH
hPa
Press
MSL
hPa
Rain
since 9 am
mm
Dir
 
Spd
km/h
Gust
km/h
Spd
kts
Gust
kts
09/10:00am 17.5 15.0 8.4 55 4.8 NNW 11 15 6 8 1021.7 1020.8 0.0
09/09:30am 15.7 13.5 7.7 59 4.1 NW 9 19 5 10 1021.9 1021.1 0.0
09/09:00am 14.5 12.3 8.0 65 3.3 NW 9 13 5 7 1022.1 1021.3 0.0
09/08:30am 12.4 11.0 7.3 71 2.5 N 4 6 2 3 1022.3 1021.5 0.0
09/08:00am 11.7 11.1 7.4 75 2.1 CALM 0 0 0 0 1022.2 1021.4 0.0
09/07:30am 9.5 8.8 6.8 83 1.3 CALM 0 0 0 0 1022.1 1021.3 0.0
09/07:00am 8.1 7.3 6.4 89 0.8 CALM 0 0 0 0 1022.1 1021.3 0.0
09/06:30am 7.2 5.3 5.0 86 1.0 N 4 7 2 4 1022.0 1021.2 0.0
09/06:00am 8.7 5.8 6.5 86 1.0 W 11 15 6 8 1021.6 1020.7 0.0
09/05:30am 7.1 5.0 5.7 91 0.6 WSW 6 7 3 4 1021.6 1020.7 0.0
09/05:00am 7.6 5.2 5.4 86 1.0 NW 7 11 4 6 1021.6 1020.7 0.0
09/04:30am 7.7 5.0 5.5 86 1.0 NW 9 13 5 7 1021.6 1020.7 0.0
09/04:00am 8.4 5.8 5.9 84 1.2 NW 9 13 5 7 1021.4 1020.6 0.0
09/03:30am 9.2 7.5 6.1 81 1.5 NNW 4 9 2 5 1021.4 1020.6 0.0
09/03:00am 10.4 7.9 6.7 78 1.8 W 9 15 5 8 1021.3 1020.5 0.0
09/02:30am 11.6 9.2 6.9 73 2.3 W 9 17 5 9 1021.3 1020.5 0.0
09/02:00am 11.2 8.8 7.1 76 2.0 W 9 13 5 7 1021.4 1020.6 0.0
09/01:30am 11.5 9.0 6.4 71 2.5 WSW 9 13 5 7 1021.7 1020.8 0.0
09/01:00am 12.6 9.4 6.9 68 2.8 W 13 19 7 10 1021.8 1020.9 0.0
09/12:30am 13.1 9.2 6.9 66 3.1 SW 17 22 9 12 1021.9 1021.1 0.0
09/12:00am 13.2 10.0 7.0 66 3.1 WSW 13 20 7 11 1021.9 1021.1 0.0
 
Date/Time
EDT
Temp
°C
App
Temp
°C
Dew
Point
Rel
Hum
%
Delta-T
°C
Wind Press
QNH
hPa
Press
MSL
hPa
Rain
since 9 am
mm
Dir
 
Spd
km/h
Gust
km/h
Spd
kts
Gust
kts
08/11:30pm 13.6 10.0 6.9 64 3.3 SW 15 22 8 12 1022.1 1021.3 0.0
08/11:00pm 14.0 10.0 6.8 62 3.6 WSW 17 30 9 16 1022.2 1021.4 0.0
08/10:30pm 14.5 10.1 7.3 62 3.6 SW 20 32 11 17 1022.1 1021.3 0.0
08/10:00pm 15.0 11.6 7.5 61 3.8 WSW 15 22 8 12 1022.0 1021.2 0.0
08/09:30pm 15.4 12.7 7.4 59 4.1 SW 11 13 6 7 1021.9 1021.1 0.0
08/09:00pm 16.5 13.0 7.4 55 4.6 SW 15 22 8 12 1021.2 1020.4 0.0
08/08:30pm 17.7 15.0 7.4 51 5.3 WSW 11 20 6 11 1020.8 1020.0 0.0
08/08:00pm 18.9 14.8 7.7 48 5.8 SW 19 24 10 13 1020.3 1019.5 0.0
08/07:30pm 20.2 16.5 7.9 45 6.5 WSW 17 24 9 13 1019.9 1019.0 0.0
08/07:00pm 21.9 18.1 7.7 40 7.5 WSW 17 26 9 14 1019.4 1018.5 0.0
08/06:30pm 23.0 19.2 7.5 37 8.3 SW 17 28 9 15 1018.9 1018.1 0.0
08/06:00pm 23.9 19.7 7.5 35 8.8 WSW 19 28 10 15 1018.6 1017.8 0.0
08/05:30pm 25.0 20.9 8.5 35 9.1 W 20 37 11 20 1018.4 1017.6 0.0
08/05:00pm 25.1 20.9 7.3 32 9.6 W 19 32 10 17 1018.3 1017.5 0.0
08/04:30pm 24.7 20.7 8.2 35 9.0 WSW 19 30 10 16 1018.2 1017.4 0.0
08/04:00pm 25.1 21.1 9.0 36 8.9 WNW 20 35 11 19 1018.3 1017.5 0.0
08/03:30pm 24.7 19.8 8.6 36 8.8 WSW 24 33 13 18 1018.5 1017.7 0.0
08/03:00pm 24.3 19.6 7.9 35 8.9 WSW 22 32 12 17 1018.7 1017.9 0.0
08/02:30pm 24.0 18.9 7.6 35 8.8 W 24 32 13 17 1018.8 1018.0 0.0
08/02:00pm 23.6 19.0 8.1 37 8.4 WSW 22 32 12 17 1018.8 1018.0 0.0
08/01:30pm 23.4 19.3 7.9 37 8.3 WSW 19 28 10 15 1018.9 1018.1 0.0
08/01:00pm 23.0 19.1 7.1 36 8.4 W 17 28 9 15 1018.9 1018.1 0.0
08/12:30pm 22.7 18.3 9.1 42 7.5 W 22 35 12 19 1019.1 1018.3 0.0
08/12:00pm 22.1 17.9 9.6 45 6.9 WSW 22 33 12 18 1019.1 1018.3 0.0
08/11:30am 21.3 17.3 9.2 46 6.6 W 20 32 11 17 1019.3 1018.4 0.0
08/11:00am 20.6 17.1 10.1 51 5.8 WSW 19 28 10 15 1019.4 1018.5 0.0
08/10:30am 19.9 16.2 10.0 53 5.4 W 20 32 11 17 1019.3 1018.4 0.0
08/10:00am 18.8 14.3 10.1 57 4.7 WNW 24 35 13 19 1019.5 1018.6 0.0
08/09:30am 18.6 14.0 10.9 61 4.3 WSW 26 35 14 19 1019.8 1018.9 0.0
08/09:00am 17.8 14.9 11.1 65 3.7 W 17 30 9 16 1019.7 1018.8 0.0
08/08:30am 16.9 13.7 11.4 70 3.0 W 19 33 10 18 1019.4 1018.5 0.0
08/08:00am 15.9 14.0 11.7 76 2.3 W 13 24 7 13 1019.0 1018.2 0.0
08/07:30am 14.3 14.2 13.3 94 0.6 W 6 9 3 5 1018.9 1018.1 0.0
08/07:00am 12.5 12.7 11.7 95 0.4 NW 2 7 1 4 1018.7 1017.9 0.0
08/06:30am 13.5 13.1 12.9 96 0.3 NW 7 11 4 6 1018.5 1017.7 0.0
08/06:00am 13.8 14.0 13.2 96 0.3 NW 4 7 2 4 1018.4 1017.6 0.0
08/05:30am 14.4 15.6 13.8 96 0.3 CALM 0 0 0 0 1018.1 1017.3 0.0
08/05:00am 14.4 15.6 13.8 96 0.3 CALM 0 0 0 0 1018.2 1017.4 0.0
08/04:30am 14.4 15.6 13.8 96 0.3 CALM 0 0 0 0 1018.1 1017.3 0.0
08/04:00am 14.9 15.1 14.3 96 0.3 WNW 6 9 3 5 1018.2 1017.4 0.0
08/03:30am 14.4 14.4 13.6 95 0.5 N 6 7 3 4 1018.1 1017.3 0.0
08/03:00am 14.7 14.8 13.9 95 0.5 E 6 7 3 4 1018.2 1017.4 0.0
08/02:30am 14.8 14.7 13.8 94 0.6 SSW 7 11 4 6 1018.6 1017.8 0.0
08/02:00am 15.0 14.9 14.0 94 0.6 SSW 7 9 4 5 1018.6 1017.8 0.0
08/01:30am 15.5 15.4 14.0 91 0.9 SW 7 11 4 6 1018.6 1017.8 0.0
08/01:00am 16.5 17.6 13.6 83 1.7 CALM 0 0 0 0 1018.8 1018.0 0.0
08/12:30am 16.6 16.6 13.7 83 1.7 NNE 6 7 3 4 1018.8 1018.0 0.0
08/12:00am 16.5 17.7 13.8 84 1.6 CALM 0 0 0 0 1018.8 1018.0 0.0
 
Date/Time
EDT
Temp
°C
App
Temp
°C
Dew
Point
Rel
Hum
%
Delta-T
°C
Wind Press
QNH
hPa
Press
MSL
hPa
Rain
since 9 am
mm
Dir
 
Spd
km/h
Gust
km/h
Spd
kts
Gust
kts
07/11:30pm 16.6 16.9 13.5 82 1.8 ESE 4 7 2 4 1018.9 1018.1 0.0
07/11:00pm 16.9 17.3 13.6 81 1.9 SSE 4 9 2 5 1019.1 1018.3 0.0
07/10:30pm 17.2 16.1 13.1 77 2.3 E 11 17 6 9 1019.3 1018.4 0.0
07/10:00pm 17.1 16.8 13.2 78 2.2 ENE 7 11 4 6 1019.0 1018.2 0.0
07/09:30pm 16.6 16.3 13.3 81 1.9 ESE 7 9 4 5 1018.7 1017.9 0.0
07/09:00pm 17.2 15.8 13.5 79 2.1 E 13 17 7 9 1018.5 1017.7 0.0
07/08:30pm 17.5 16.2 13.6 78 2.3 E 13 20 7 11 1018.2 1017.4 0.0
07/08:00pm 18.3 17.1 14.0 76 2.5 ENE 13 20 7 11 1017.8 1016.9 0.0
07/07:30pm 18.8 17.6 14.1 74 2.8 ENE 13 20 7 11 1017.7 1016.8 0.0
07/07:00pm 19.6 17.6 14.0 70 3.3 ENE 17 26 9 14 1017.2 1016.3 0.0
07/06:30pm 20.4 17.1 14.1 67 3.7 E 24 30 13 16 1016.8 1016.0 0.0
07/06:00pm 21.1 18.7 14.3 65 4.0 E 20 28 11 15 1016.8 1016.0 0.0
07/05:30pm 22.0 19.7 14.6 63 4.4 E 20 30 11 16 1017.0 1016.1 0.0
07/05:00pm 22.8 20.7 15.1 62 4.7 E 20 26 11 14 1017.0 1016.1 0.0
07/04:30pm 23.2 21.5 14.7 58 5.1 E 17 22 9 12 1016.8 1016.0 0.0
07/04:00pm 22.4 20.2 14.8 62 4.6 ESE 20 26 11 14 1016.8 1016.0 0.0
07/03:30pm 24.5 24.0 12.5 47 7.0 SE 7 13 4 7 1017.0 1016.1 0.0
07/03:00pm 25.9 25.6 13.4 46 7.5 ENE 7 15 4 8 1017.2 1016.3 0.0
07/02:30pm 25.2 24.4 12.8 46 7.3 NNW 9 17 5 9 1017.3 1016.4 0.0
07/02:00pm 24.6 23.0 12.9 48 6.9 NNE 13 20 7 11 1017.5 1016.6 0.0
07/01:30pm 21.9 21.5 12.5 55 5.4 S 6 9 3 5 1017.8 1016.9 0.0
07/01:00pm 22.4 21.7 12.1 52 5.9 SSE 7 17 4 9 1018.0 1017.1 0.0
07/12:30pm 21.6 20.5 11.9 54 5.6 E 9 13 5 7 1018.2 1017.4 0.0
07/12:00pm 21.6 20.9 13.2 59 4.9 W 9 13 5 7 1018.5 1017.7 0.0
07/11:30am 20.4 19.3 12.1 59 4.7 ENE 9 13 5 7 1018.8 1018.0 0.0
07/11:00am 20.6 19.6 12.3 59 4.8 SE 9 15 5 8 1018.9 1018.1 0.0
07/10:30am 19.3 18.5 12.8 66 3.7 SE 9 15 5 8 1019.1 1018.3 0.0
07/10:00am 18.9 18.1 12.9 68 3.4 NW 9 13 5 7 1019.3 1018.4 0.0
07/09:30am 18.2 16.9 12.4 69 3.3 WNW 11 15 6 8 1019.1 1018.3 0.0
07/09:00am 18.0 16.8 12.7 71 3.0 WNW 11 17 6 9 1019.4 1018.5 0.0
07/08:30am 16.7 16.2 12.8 78 2.2 NNW 7 9 4 5 1019.3 1018.4 0.0
07/08:00am 15.9 16.9 13.2 84 1.5 CALM 0 0 0 0 1019.1 1018.3 0.0
07/07:30am 15.3 15.2 13.2 87 1.2 NNE 6 7 3 4 1018.9 1018.1 0.0
07/07:00am 14.8 14.7 13.2 90 0.9 ENE 6 7 3 4 1018.7 1017.9 0.0
07/06:30am 14.4 15.3 12.8 90 0.9 CALM 0 0 0 0 1018.5 1017.7 0.0
07/06:00am 14.0 14.8 12.6 91 0.8 CALM 0 0 0 0 1018.2 1017.4 0.0
07/05:30am 13.3 13.9 11.9 91 0.8 CALM 0 0 0 0 1017.8 1016.9 0.0
07/05:00am 13.0 13.5 11.7 92 0.7 CALM 0 0 0 0 1017.8 1016.9 0.0
07/04:30am 14.0 12.9 11.9 87 1.2 N 9 13 5 7 1017.6 1016.7 0.0
07/04:00am 13.8 12.8 12.2 90 0.9 NNE 9 13 5 7 1017.6 1016.7 0.0
07/03:30am 13.7 13.1 11.6 87 1.1 NE 6 9 3 5 1017.8 1016.9 0.0
07/03:00am 14.1 13.0 12.0 87 1.2 NNE 9 13 5 7 1018.0 1017.1 0.0
07/02:30am 14.7 12.9 12.2 85 1.4 N 13 17 7 9 1018.2 1017.4 0.0
07/02:00am 15.0 12.4 12.1 83 1.6 NNE 17 22 9 12 1018.2 1017.4 0.0
07/01:30am 15.1 12.6 12.2 83 1.6 N 17 20 9 11 1018.2 1017.4 0.0
07/01:00am 15.7 13.6 12.5 81 1.8 N 15 20 8 11 1018.5 1017.7 0.0
07/12:30am 15.7 14.4 12.5 81 1.8 N 11 17 6 9 1018.4 1017.6 0.0
07/12:00am 15.7 13.7 12.8 83 1.6 NNE 15 19 8 10 1018.4 1017.6 0.0
 
Date/Time
EDT
Temp
°C
App
Temp
°C
Dew
Point
Rel
Hum
%
Delta-T
°C
Wind Press
QNH
hPa
Press
MSL
hPa
Rain
since 9 am
mm
Dir
 
Spd
km/h
Gust
km/h
Spd
kts
Gust
kts
06/11:30pm 15.4 14.8 13.6 89 1.0 NE 9 17 5 9 1018.5 1017.7 0.0
06/11:00pm 15.7 15.5 13.7 88 1.1 NE 7 11 4 6 1018.7 1017.9 0.0
06/10:30pm 16.1 15.5 13.4 84 1.5 NE 9 19 5 10 1018.8 1018.0 0.0
06/10:00pm 16.7 15.6 13.0 79 2.1 ENE 11 17 6 9 1019.1 1018.3 0.0
06/09:30pm 17.0 15.3 12.5 75 2.5 ENE 13 20 7 11 1018.8 1018.0 0.0
06/09:00pm 17.2 15.9 12.5 74 2.7 ENE 11 17 6 9 1018.6 1017.8 0.0
06/08:30pm 17.8 16.1 12.5 71 3.0 E 13 17 7 9 1018.7 1017.9 0.0
06/08:00pm 18.6 16.3 13.0 70 3.2 E 17 26 9 14 1018.5 1017.7 0.0
06/07:30pm 19.4 16.6 13.1 67 3.6 E 20 28 11 15 1018.4 1017.6 0.0
06/07:00pm 20.7 18.7 13.9 65 4.0 E 17 33 9 18 1018.2 1017.4 0.0
06/06:30pm 21.6 19.6 13.8 61 4.6 E 17 26 9 14 1018.0 1017.1 0.0
06/06:00pm 22.2 20.6 13.8 59 5.0 ENE 15 26 8 14 1018.1 1017.3 0.0
06/05:30pm 22.0 19.4 13.9 60 4.8 E 20 28 11 15 1018.1 1017.3 0.0
06/05:00pm 22.8 21.5 13.8 57 5.3 ENE 13 20 7 11 1018.1 1017.3 0.0
06/04:30pm 22.8 21.0 13.3 55 5.6 SE 15 22 8 12 1018.3 1017.5 0.0
06/04:00pm 23.8 23.2 13.6 52 6.1 ESE 9 11 5 6 1018.4 1017.6 0.0
06/03:30pm 23.3 22.6 12.0 49 6.5 NE 7 13 4 7 1018.7 1017.9 0.0
06/03:00pm 23.6 22.2 12.3 49 6.6 N 11 15 6 8 1018.9 1018.1 0.0
06/02:30pm 23.9 22.5 12.2 48 6.8 N 11 20 6 11 1019.4 1018.5 0.0
06/02:00pm 23.7 22.6 13.0 51 6.3 E 11 19 6 10 1019.8 1018.9 0.0
06/01:30pm 23.2 21.6 12.8 52 6.1 NE 13 22 7 12 1020.2 1019.4 0.0
06/01:00pm 23.8 23.3 13.9 54 5.9 N 9 22 5 12 1020.3 1019.5 0.0
06/12:30pm 21.5 19.8 12.6 57 5.2 NNE 13 20 7 11 1020.6 1019.8 0.0
06/12:00pm 21.8 20.9 13.7 60 4.8 NNE 11 19 6 10 1021.0 1020.2 0.0
06/11:30am 20.9 19.5 13.4 62 4.4 NNE 13 19 7 10 1021.3 1020.5 0.0
06/11:00am 19.2 18.3 12.5 65 3.8 NW 9 15 5 8 1021.7 1020.8 0.0
06/10:30am 19.2 18.3 12.7 66 3.7 W 9 15 5 8 1021.7 1020.8 0.0

Other Formats:

Comma delimited format used in spreadsheet applications
http://www.bom.gov.au/fwo/IDT60801/IDT60801.94960.axf

JavaScript Object Notation format (JSON) in row-major order
http://www.bom.gov.au/fwo/IDT60801/IDT60801.94960.json